createdAt,value
2023-02-12T00:01:21.043Z,73.31
2023-02-12T00:03:49.515Z,73.46
2023-02-12T00:06:17.317Z,73.52
2023-02-12T00:08:45.070Z,71.77
2023-02-12T00:11:17.798Z,72.14
2023-02-12T00:13:45.553Z,72.61
2023-02-12T00:16:15.151Z,71.51
2023-02-12T00:18:43.592Z,72.21
2023-02-12T00:21:11.566Z,72.63
2023-02-12T00:23:38.999Z,71.90
2023-02-12T00:26:08.898Z,71.35
2023-02-12T00:28:37.042Z,72.49
2023-02-12T00:31:13.118Z,73.03
2023-02-12T00:33:40.613Z,72.12
2023-02-12T00:36:07.761Z,72.29
2023-02-12T00:38:35.658Z,72.75
2023-02-12T00:41:03.498Z,72.87
2023-02-12T00:43:31.452Z,72.15
2023-02-12T00:45:59.717Z,72.80
2023-02-12T00:48:30.313Z,74.21
2023-02-12T00:50:58.402Z,74.15
2023-02-12T00:53:26.634Z,73.70
2023-02-12T00:55:54.909Z,73.50
2023-02-12T00:58:23.115Z,73.94
2023-02-12T01:00:50.928Z,74.42
2023-02-12T01:03:18.076Z,73.91
2023-02-12T01:05:46.397Z,71.34
2023-02-12T01:08:14.431Z,72.44
2023-02-12T01:10:42.092Z,73.83
2023-02-12T01:13:13.578Z,73.94
2023-02-12T01:15:42.029Z,74.33
2023-02-12T01:18:09.841Z,74.97
2023-02-12T01:20:37.990Z,75.32
2023-02-12T01:23:07.045Z,73.18
2023-02-12T01:25:35.205Z,74.55
2023-02-12T01:28:03.373Z,75.37
2023-02-12T01:30:31.500Z,76.36
2023-02-12T01:33:01.164Z,77.02
2023-02-12T01:35:29.404Z,77.42
2023-02-12T01:37:59.007Z,77.30
2023-02-12T01:40:27.138Z,75.94
2023-02-12T01:43:02.129Z,75.88
2023-02-12T01:45:29.082Z,76.01
2023-02-12T01:47:57.223Z,76.46
2023-02-12T01:50:24.833Z,76.73
2023-02-12T01:52:54.197Z,77.33
2023-02-12T01:55:21.560Z,77.44
2023-02-12T01:57:49.116Z,77.53
2023-02-12T02:00:19.661Z,76.86
2023-02-12T02:02:49.549Z,77.48
2023-02-12T02:05:22.881Z,79.48
2023-02-12T02:07:50.848Z,79.98
2023-02-12T02:10:19.332Z,79.79
2023-02-12T02:13:05.780Z,79.88
2023-02-12T02:15:39.031Z,81.13
2023-02-12T02:18:11.940Z,81.68
2023-02-12T02:21:00.648Z,81.68
2023-02-12T02:23:57.244Z,81.30
2023-02-12T02:26:51.380Z,79.25
2023-02-12T02:29:45.620Z,78.81
2023-02-12T02:32:30.262Z,81.57
2023-02-12T02:35:51.867Z,82.84
2023-02-12T02:38:30.328Z,82.79
2023-02-12T02:41:05.962Z,82.20
2023-02-12T02:43:45.224Z,82.92
2023-02-12T02:46:19.045Z,81.82
2023-02-12T02:48:48.827Z,82.26
2023-02-12T02:51:20.006Z,81.33
2023-02-12T02:53:49.648Z,81.06
2023-02-12T02:56:18.239Z,80.39
2023-02-12T02:58:52.089Z,80.21
2023-02-12T03:01:36.794Z,80.83
2023-02-12T03:04:12.725Z,80.73
2023-02-12T03:07:02.071Z,80.50
2023-02-12T03:09:45.237Z,79.76
2023-02-12T03:12:19.968Z,79.80
2023-02-12T03:14:54.110Z,79.81
2023-02-12T03:17:24.247Z,78.95
2023-02-12T03:19:54.502Z,76.94
2023-02-12T03:22:27.441Z,78.25
2023-02-12T03:25:01.293Z,79.18
2023-02-12T03:27:35.633Z,78.67
2023-02-12T03:30:04.133Z,78.24
2023-02-12T03:32:37.506Z,78.66
2023-02-12T03:35:17.445Z,80.32
2023-02-12T03:37:59.500Z,81.04
2023-02-12T03:40:59.445Z,80.49
2023-02-12T03:43:35.475Z,81.05
2023-02-12T03:46:33.252Z,81.65
2023-02-12T03:49:11.623Z,81.08
2023-02-12T03:51:40.369Z,80.75
2023-02-12T03:54:08.611Z,80.44
2023-02-12T03:56:40.640Z,80.89
2023-02-12T03:59:09.690Z,80.69
2023-02-12T04:01:37.329Z,79.05
2023-02-12T04:04:06.261Z,79.28
2023-02-12T04:06:36.338Z,79.75
2023-02-12T04:09:06.014Z,79.13
2023-02-12T04:11:49.988Z,80.73
2023-02-12T04:14:50.148Z,81.28
2023-02-12T04:17:17.317Z,81.28
2023-02-12T04:19:58.423Z,80.97
2023-02-12T04:22:54.525Z,80.39
2023-02-12T04:25:26.910Z,79.13
2023-02-12T04:28:05.197Z,82.46
2023-02-12T04:31:02.081Z,83.16
2023-02-12T04:33:32.978Z,82.97
2023-02-12T04:36:27.827Z,83.36
2023-02-12T04:38:59.566Z,83.38
2023-02-12T04:41:27.723Z,83.32
2023-02-12T04:43:55.927Z,83.97
2023-02-12T04:46:25.157Z,83.08
2023-02-12T04:48:58.652Z,80.53
2023-02-12T04:51:26.648Z,79.39
2023-02-12T04:53:54.331Z,80.66
2023-02-12T04:56:22.362Z,81.17
2023-02-12T04:58:50.507Z,82.15
2023-02-12T05:01:19.054Z,83.40
2023-02-12T05:03:52.485Z,83.92
2023-02-12T05:06:20.446Z,82.55
2023-02-12T05:08:48.451Z,82.48
2023-02-12T05:11:16.207Z,82.69
2023-02-12T05:13:43.873Z,83.57
2023-02-12T05:16:13.053Z,83.93
2023-02-12T05:18:41.077Z,82.95
2023-02-12T05:21:08.859Z,83.05
2023-02-12T05:23:37.260Z,84.11
2023-02-12T05:26:08.645Z,84.23
2023-02-12T05:28:36.933Z,84.50
2023-02-12T05:31:08.525Z,84.35
2023-02-12T05:33:35.283Z,84.59
2023-02-12T05:36:06.002Z,84.01
2023-02-12T05:38:33.448Z,79.89
2023-02-12T05:41:11.570Z,81.89
2023-02-12T05:43:40.249Z,85.16
2023-02-12T05:46:08.762Z,85.33
2023-02-12T05:48:36.592Z,85.81
2023-02-12T05:51:11.417Z,85.43
2023-02-12T05:53:39.718Z,85.87
2023-02-12T05:56:18.370Z,85.98
2023-02-12T05:58:47.689Z,86.61
2023-02-12T06:01:20.572Z,86.84
2023-02-12T06:03:48.810Z,83.33
2023-02-12T06:06:16.604Z,83.02
2023-02-12T06:08:44.796Z,85.29
2023-02-12T06:11:14.932Z,87.20
2023-02-12T06:13:42.743Z,86.18
2023-02-12T06:16:30.206Z,86.36
2023-02-12T06:18:58.390Z,87.64
2023-02-12T06:21:26.940Z,87.88
2023-02-12T06:23:54.750Z,87.59
2023-02-12T06:26:22.869Z,86.58
2023-02-12T06:28:49.599Z,86.14
2023-02-12T06:31:21.170Z,85.65
2023-02-12T06:33:48.668Z,85.51
2023-02-12T06:36:18.078Z,85.21
2023-02-12T06:38:46.196Z,86.25
2023-02-12T06:41:14.569Z,86.63
2023-02-12T06:43:42.199Z,86.51
2023-02-12T06:46:10.117Z,85.83
2023-02-12T06:48:38.244Z,85.35
2023-02-12T06:51:13.418Z,84.80
2023-02-12T06:53:47.597Z,84.17
2023-02-12T06:56:14.703Z,83.54
2023-02-12T06:58:43.522Z,83.38
2023-02-12T07:01:13.601Z,82.41
2023-02-12T07:03:53.441Z,82.31
2023-02-12T07:06:38.858Z,82.08
2023-02-12T07:09:06.910Z,82.01
2023-02-12T07:11:37.932Z,82.84
2023-02-12T07:14:06.808Z,83.28
2023-02-12T07:16:35.030Z,83.41
2023-02-12T07:19:02.881Z,83.40
2023-02-12T07:21:32.177Z,82.51
2023-02-12T07:24:00.053Z,82.29
2023-02-12T07:26:28.224Z,81.27
2023-02-12T07:28:57.661Z,80.63
2023-02-12T07:31:25.894Z,83.48
2023-02-12T07:33:57.806Z,84.11
2023-02-12T07:36:26.515Z,84.72
2023-02-12T07:38:55.362Z,84.16
2023-02-12T07:41:25.726Z,84.20
2023-02-12T07:43:58.060Z,83.83
2023-02-12T07:46:30.811Z,82.54
2023-02-12T07:49:03.197Z,82.18
2023-02-12T07:51:36.437Z,81.53
2023-02-12T07:54:04.307Z,80.32
2023-02-12T07:56:35.229Z,79.62
2023-02-12T07:59:04.420Z,79.09
2023-02-12T08:01:36.282Z,78.23
2023-02-12T08:04:14.185Z,76.28
2023-02-12T08:06:46.568Z,76.33
2023-02-12T08:09:18.926Z,76.04
2023-02-12T08:11:47.198Z,74.92
2023-02-12T08:14:16.770Z,74.16
2023-02-12T08:16:45.007Z,73.30
2023-02-12T08:19:20.924Z,73.68
2023-02-12T08:21:53.018Z,74.24
2023-02-12T08:24:26.119Z,74.61
2023-02-12T08:26:54.205Z,74.12
2023-02-12T08:29:26.695Z,74.30
2023-02-12T08:32:02.175Z,74.30
2023-02-12T08:34:31.592Z,73.58
2023-02-12T08:36:59.589Z,72.81
2023-02-12T08:39:28.650Z,71.72
2023-02-12T08:41:57.169Z,70.08
2023-02-12T08:44:25.226Z,68.79
2023-02-12T08:46:53.679Z,67.88
2023-02-12T08:49:22.639Z,67.08
2023-02-12T08:51:51.517Z,66.03
2023-02-12T08:54:20.232Z,64.70
2023-02-12T08:56:48.145Z,62.83
2023-02-12T08:59:16.773Z,63.08
2023-02-12T09:01:45.168Z,61.87
2023-02-12T09:04:23.375Z,63.78
2023-02-12T09:06:50.635Z,64.31
2023-02-12T09:09:19.806Z,64.60
2023-02-12T09:11:48.485Z,65.60
2023-02-12T09:14:17.656Z,66.64
2023-02-12T09:16:45.504Z,66.87
2023-02-12T09:19:13.913Z,66.10
2023-02-12T09:21:41.487Z,64.74
2023-02-12T09:24:09.413Z,65.05
2023-02-12T09:26:37.461Z,64.98
2023-02-12T09:29:05.563Z,64.05
2023-02-12T09:31:34.312Z,63.87
2023-02-12T09:34:03.040Z,63.34
2023-02-12T09:36:30.863Z,62.40
2023-02-12T09:38:59.638Z,61.86
2023-02-12T09:41:59.614Z,60.46
2023-02-12T09:44:30.720Z,59.41
2023-02-12T09:47:05.780Z,56.96
2023-02-12T09:49:56.983Z,57.24
2023-02-12T09:52:26.927Z,55.77
2023-02-12T09:54:54.035Z,56.78
2023-02-12T09:57:37.868Z,53.92
2023-02-12T10:00:23.621Z,54.93
2023-02-12T10:02:52.542Z,52.84
2023-02-12T10:05:32.408Z,51.00
2023-02-12T10:08:27.177Z,51.36
2023-02-12T10:11:34.248Z,52.55
2023-02-12T10:14:37.983Z,53.41
2023-02-12T10:17:14.049Z,53.91
2023-02-12T10:19:41.068Z,53.94
2023-02-12T10:22:19.194Z,53.81
2023-02-12T10:25:02.493Z,54.32
2023-02-12T10:28:16.344Z,53.23
2023-02-12T10:31:00.654Z,52.47
2023-02-12T10:33:28.914Z,52.18
2023-02-12T10:36:37.911Z,51.16
2023-02-12T10:39:11.289Z,50.30
2023-02-12T10:41:41.424Z,50.29
2023-02-12T10:44:10.983Z,49.68
2023-02-12T10:46:38.878Z,50.03
2023-02-12T10:49:06.076Z,50.31
2023-02-12T10:51:49.015Z,48.36
2023-02-12T10:54:34.559Z,48.96
2023-02-12T10:57:10.953Z,47.99
2023-02-12T10:59:38.590Z,48.05
2023-02-12T11:02:18.020Z,47.63
2023-02-12T11:04:46.180Z,47.50
2023-02-12T11:07:14.364Z,46.34
2023-02-12T11:09:45.637Z,46.25
2023-02-12T11:12:35.120Z,45.24
2023-02-12T11:15:47.991Z,44.95
2023-02-12T11:18:44.580Z,44.87
2023-02-12T11:21:12.773Z,44.04
2023-02-12T11:23:45.237Z,43.96
2023-02-12T11:26:18.246Z,43.46
2023-02-12T11:29:02.332Z,42.99
2023-02-12T11:31:31.708Z,43.70
2023-02-12T11:34:04.568Z,43.39
2023-02-12T11:36:31.807Z,42.84
2023-02-12T11:38:59.050Z,41.93
2023-02-12T11:41:39.498Z,41.30
2023-02-12T11:44:25.898Z,40.96
2023-02-12T11:47:22.166Z,40.47
2023-02-12T11:49:55.032Z,39.78
2023-02-12T11:52:26.707Z,40.06
2023-02-12T11:54:58.387Z,39.60
2023-02-12T11:57:43.828Z,39.51
2023-02-12T12:00:13.136Z,38.03
2023-02-12T12:02:41.234Z,38.30
2023-02-12T12:05:13.446Z,37.19
2023-02-12T12:07:42.587Z,36.62
2023-02-12T12:10:23.710Z,36.18
2023-02-12T12:12:55.904Z,36.10
2023-02-12T12:15:42.982Z,34.36
2023-02-12T12:18:35.239Z,33.81
2023-02-12T12:21:12.513Z,33.75
2023-02-12T12:23:43.155Z,32.92
2023-02-12T12:27:00.551Z,33.01
2023-02-12T12:29:31.662Z,32.52
2023-02-12T12:32:01.658Z,32.25
2023-02-12T12:34:29.323Z,31.45
2023-02-12T12:37:18.804Z,30.62
2023-02-12T12:39:48.832Z,30.52
2023-02-12T12:42:47.979Z,29.67
2023-02-12T12:45:29.904Z,29.70
2023-02-12T12:48:18.488Z,29.58
2023-02-12T12:51:08.691Z,29.50
2023-02-12T12:53:54.176Z,29.20
2023-02-12T12:56:27.482Z,28.43
2023-02-12T12:59:18.549Z,27.89
2023-02-12T13:02:03.575Z,28.46
2023-02-12T13:04:45.621Z,27.75
2023-02-12T13:07:46.462Z,26.61
2023-02-12T13:10:27.282Z,25.72
2023-02-12T13:13:00.242Z,24.60
2023-02-12T13:16:05.284Z,24.05
2023-02-12T13:18:56.438Z,23.40
2023-02-12T13:22:06.137Z,23.26
2023-02-12T13:24:51.030Z,22.95
2023-02-12T13:27:20.923Z,22.62
2023-02-12T13:29:53.583Z,22.35
2023-02-12T13:32:27.164Z,21.82
2023-02-12T13:34:54.579Z,21.38
2023-02-12T13:37:35.706Z,21.13
2023-02-12T13:40:05.196Z,20.90
2023-02-12T13:42:38.487Z,20.53
2023-02-12T13:45:14.272Z,20.53
2023-02-12T13:48:18.413Z,20.36
2023-02-12T13:50:46.930Z,20.36
2023-02-12T13:53:17.141Z,20.14
2023-02-12T13:56:21.478Z,20.21
2023-02-12T13:58:53.239Z,19.65
2023-02-12T14:01:39.650Z,19.63
2023-02-12T14:04:21.606Z,20.01
2023-02-12T14:06:59.807Z,19.34
2023-02-12T14:09:35.415Z,19.74
2023-02-12T14:12:02.762Z,20.03
2023-02-12T14:14:38.661Z,19.55
2023-02-12T14:17:34.482Z,19.79
2023-02-12T14:20:27.808Z,19.73
2023-02-12T14:23:02.316Z,20.40
2023-02-12T14:25:45.923Z,20.85
2023-02-12T14:29:08.313Z,21.21
2023-02-12T14:31:37.434Z,21.98
2023-02-12T14:34:07.773Z,22.37
2023-02-12T14:36:39.019Z,22.90
2023-02-12T14:39:24.092Z,23.04
2023-02-12T14:41:57.448Z,23.22
2023-02-12T14:44:38.316Z,23.28
2023-02-12T14:47:35.309Z,23.34
2023-02-12T14:50:06.428Z,23.51
2023-02-12T14:52:37.885Z,23.57
2023-02-12T14:55:07.220Z,23.70
2023-02-12T14:57:40.391Z,23.81
2023-02-12T15:00:25.073Z,23.80
2023-02-12T15:02:53.008Z,24.07
2023-02-12T15:05:24.367Z,24.25
2023-02-12T15:07:56.278Z,23.99
2023-02-12T15:10:24.575Z,23.60
2023-02-12T15:12:54.643Z,23.43
2023-02-12T15:15:24.567Z,23.40
2023-02-12T15:17:59.607Z,23.50
2023-02-12T15:20:41.521Z,23.58
2023-02-12T15:23:37.830Z,23.86
2023-02-12T15:26:06.718Z,24.33
2023-02-12T15:28:36.408Z,25.09
2023-02-12T15:31:05.282Z,25.42
2023-02-12T15:33:34.126Z,25.72
2023-02-12T15:36:04.859Z,26.63
2023-02-12T15:38:36.578Z,27.28
2023-02-12T15:41:04.721Z,27.68
2023-02-12T15:43:36.787Z,27.92
2023-02-12T15:46:04.563Z,28.20
2023-02-12T15:48:33.538Z,28.23
2023-02-12T15:51:32.958Z,28.19
2023-02-12T15:54:00.228Z,28.08
2023-02-12T15:56:27.776Z,27.88
2023-02-12T15:58:59.043Z,27.39
2023-02-12T16:01:32.449Z,26.82
2023-02-12T16:04:04.125Z,26.76
2023-02-12T16:06:35.670Z,26.50
2023-02-12T16:09:10.623Z,26.64
2023-02-12T16:11:38.877Z,26.50
2023-02-12T16:14:08.813Z,26.42
2023-02-12T16:16:52.871Z,26.66
2023-02-12T16:19:25.316Z,27.31
2023-02-12T16:22:06.001Z,28.90
2023-02-12T16:25:02.663Z,30.23
2023-02-12T16:27:34.245Z,31.60
2023-02-12T16:30:01.870Z,32.31
2023-02-12T16:32:34.543Z,33.25
2023-02-12T16:35:44.553Z,33.89
2023-02-12T16:38:46.713Z,34.82
2023-02-12T16:41:23.781Z,35.82
2023-02-12T16:44:11.847Z,36.85
2023-02-12T16:46:46.889Z,37.13
2023-02-12T16:49:18.795Z,37.24
2023-02-12T16:51:46.593Z,38.41
2023-02-12T16:54:33.712Z,38.52
2023-02-12T16:57:01.988Z,38.56
2023-02-12T16:59:29.727Z,39.44
2023-02-12T17:02:30.052Z,39.49
2023-02-12T17:05:08.592Z,39.78
2023-02-12T17:07:36.277Z,39.80
2023-02-12T17:10:05.529Z,40.40
2023-02-12T17:12:33.410Z,40.10
2023-02-12T17:15:05.375Z,41.38
2023-02-12T17:17:33.080Z,40.59
2023-02-12T17:20:01.098Z,40.41
2023-02-12T17:22:31.045Z,41.61
2023-02-12T17:24:58.593Z,41.61
2023-02-12T17:27:26.353Z,42.16
2023-02-12T17:29:54.026Z,42.23
2023-02-12T17:32:24.611Z,42.04
2023-02-12T17:34:52.803Z,42.26
2023-02-12T17:37:22.351Z,42.17
2023-02-12T17:39:59.263Z,43.33
2023-02-12T17:42:27.473Z,42.84
2023-02-12T17:44:55.355Z,42.97
2023-02-12T17:47:23.166Z,43.24
2023-02-12T17:49:51.234Z,44.28
2023-02-12T17:52:19.327Z,44.44
2023-02-12T17:54:47.103Z,44.30
2023-02-12T17:57:16.205Z,44.70
2023-02-12T17:59:43.896Z,45.63
2023-02-12T18:02:11.776Z,46.27
2023-02-12T18:04:39.371Z,45.38
2023-02-12T18:07:07.594Z,45.50
2023-02-12T18:09:37.050Z,46.08
2023-02-12T18:12:05.980Z,46.35
2023-02-12T18:14:33.735Z,45.60
2023-02-12T18:17:01.967Z,45.74
2023-02-12T18:19:29.870Z,45.97
2023-02-12T18:21:57.825Z,45.96
2023-02-12T18:24:25.747Z,46.33
2023-02-12T18:26:53.453Z,45.96
2023-02-12T18:29:21.729Z,46.15
2023-02-12T18:31:49.488Z,46.29
2023-02-12T18:34:17.475Z,46.28
2023-02-12T18:36:45.644Z,46.00
2023-02-12T18:39:13.619Z,46.99
2023-02-12T18:41:42.018Z,46.67
2023-02-12T18:44:10.293Z,46.13
2023-02-12T18:46:38.424Z,46.67
2023-02-12T18:49:06.730Z,46.65
2023-02-12T18:51:37.039Z,47.00
2023-02-12T18:54:07.427Z,47.01
2023-02-12T18:56:36.888Z,47.03
2023-02-12T18:59:05.513Z,47.38
2023-02-12T19:01:33.976Z,47.13
2023-02-12T19:04:02.223Z,47.59
2023-02-12T19:06:30.621Z,48.09
2023-02-12T19:08:58.436Z,48.49
2023-02-12T19:11:26.033Z,48.51
2023-02-12T19:13:53.754Z,48.74
2023-02-12T19:16:23.487Z,48.69
2023-02-12T19:18:51.911Z,49.38
2023-02-12T19:21:19.828Z,49.58
2023-02-12T19:23:48.019Z,49.72
2023-02-12T19:26:16.018Z,49.83
2023-02-12T19:28:44.059Z,50.28
2023-02-12T19:31:19.715Z,50.61
2023-02-12T19:33:47.701Z,50.64
2023-02-12T19:36:19.512Z,50.65
2023-02-12T19:38:50.653Z,51.30
2023-02-12T19:41:20.819Z,51.69
2023-02-12T19:43:48.460Z,52.11
2023-02-12T19:46:17.390Z,52.04
2023-02-12T19:48:45.479Z,52.35
2023-02-12T19:51:16.965Z,52.74
2023-02-12T19:53:46.403Z,53.06
2023-02-12T19:56:14.616Z,53.33
2023-02-12T19:58:42.528Z,53.56
2023-02-12T20:01:10.511Z,53.77
2023-02-12T20:03:39.057Z,54.03
2023-02-12T20:06:09.943Z,54.73
2023-02-12T20:08:37.450Z,54.78
2023-02-12T20:11:32.092Z,54.40
2023-02-12T20:13:59.861Z,54.56
2023-02-12T20:16:31.536Z,54.82
2023-02-12T20:19:00.886Z,54.55
2023-02-12T20:21:28.573Z,54.97
2023-02-12T20:23:57.003Z,54.85
2023-02-12T20:26:25.171Z,55.64
2023-02-12T20:28:52.462Z,55.73
2023-02-12T20:31:24.629Z,55.70
2023-02-12T20:34:01.656Z,56.04
2023-02-12T20:36:33.763Z,55.66
2023-02-12T20:39:01.296Z,55.91
2023-02-12T20:41:28.568Z,55.84
2023-02-12T20:43:56.858Z,56.53
2023-02-12T20:46:25.205Z,56.22
2023-02-12T20:48:54.426Z,56.15
2023-02-12T20:51:26.397Z,56.35
2023-02-12T20:53:55.519Z,56.53
2023-02-12T20:56:25.409Z,57.58
2023-02-12T20:58:53.158Z,57.85
2023-02-12T21:01:24.628Z,57.38
2023-02-12T21:03:53.642Z,57.77
2023-02-12T21:06:21.304Z,58.94
2023-02-12T21:08:48.948Z,59.55
2023-02-12T21:11:23.936Z,59.16
2023-02-12T21:14:02.550Z,58.68
2023-02-12T21:16:38.662Z,59.57
2023-02-12T21:19:06.190Z,59.54
2023-02-12T21:21:36.934Z,58.62
2023-02-12T21:24:07.001Z,59.10
2023-02-12T21:26:34.654Z,60.00
2023-02-12T21:29:03.599Z,59.99
2023-02-12T21:31:37.336Z,60.20
2023-02-12T21:34:05.855Z,59.90
2023-02-12T21:36:37.850Z,59.59
2023-02-12T21:39:09.476Z,58.98
2023-02-12T21:41:38.801Z,59.59
2023-02-12T21:44:14.593Z,60.42
2023-02-12T21:46:42.607Z,61.98
2023-02-12T21:49:11.675Z,61.37
2023-02-12T21:51:41.238Z,62.34
2023-02-12T21:54:10.347Z,62.79
2023-02-12T21:56:38.779Z,62.35
2023-02-12T21:59:07.128Z,62.30
2023-02-12T22:01:36.113Z,61.90
2023-02-12T22:04:06.974Z,62.87
2023-02-12T22:06:36.834Z,62.29
2023-02-12T22:09:08.012Z,62.18
2023-02-12T22:11:58.977Z,62.00
2023-02-12T22:14:26.910Z,62.74
2023-02-12T22:16:55.581Z,61.86
2023-02-12T22:19:23.424Z,62.16
2023-02-12T22:21:51.838Z,61.88
2023-02-12T22:24:19.661Z,62.01
2023-02-12T22:26:47.635Z,62.26
2023-02-12T22:29:16.090Z,62.28
2023-02-12T22:31:45.331Z,63.30
2023-02-12T22:34:14.113Z,62.67
2023-02-12T22:36:42.222Z,63.08
2023-02-12T22:39:10.028Z,63.24
2023-02-12T22:41:38.043Z,63.02
2023-02-12T22:44:06.569Z,62.74
2023-02-12T22:46:36.360Z,62.86
2023-02-12T22:49:04.365Z,62.90
2023-02-12T22:51:32.285Z,62.60
2023-02-12T22:53:59.039Z,62.73
2023-02-12T22:56:27.693Z,62.07
2023-02-12T22:58:59.124Z,61.76
2023-02-12T23:01:26.202Z,62.35
2023-02-12T23:03:54.076Z,62.35
2023-02-12T23:06:23.576Z,61.41
2023-02-12T23:08:51.608Z,61.90
2023-02-12T23:11:19.101Z,61.53
2023-02-12T23:13:46.881Z,62.02
2023-02-12T23:16:14.977Z,61.57
2023-02-12T23:18:44.569Z,61.70
2023-02-12T23:21:13.068Z,61.22
2023-02-12T23:23:41.543Z,61.66
2023-02-12T23:26:09.628Z,61.94
2023-02-12T23:28:37.432Z,61.40
2023-02-12T23:31:05.740Z,61.36
2023-02-12T23:33:34.725Z,61.38
2023-02-12T23:36:02.714Z,61.33
2023-02-12T23:38:30.802Z,60.68
2023-02-12T23:40:59.491Z,60.14
2023-02-12T23:43:27.802Z,60.31
2023-02-12T23:45:55.867Z,60.22
2023-02-12T23:48:23.515Z,60.44
2023-02-12T23:50:52.213Z,60.05
2023-02-12T23:53:20.047Z,59.64
2023-02-12T23:55:49.835Z,60.40
2023-02-12T23:58:17.902Z,59.72
